Mullan, Idaho
Current Conditions -  °F | °C
As of 2:53 AM on Friday 28 Nov 2014 (Local Time) from KMLP Reporting Station
Overcast Overcast  
Wind Chill: 28°   Ceiling: 900
Heat Index: 36°   Visibility: 10mi
Dew Point: 36°   Wind: 12mph
Humidity: 100%   Direction: 230°SW
Pressure: 29.69"   Gusts: 25mph
Location:  47.47°N, 115.8°W
Report Text: KMLP 281053Z AUTO 23010G22KT 190V260 10SM SCT003 OVC009 02/02 A2969 RMK AO2 PK WND 22027/1014 RAE0958 SLP011 P0000 T00220022
Loading
Personal Weather Stations






























Interactive Weather Map New forecast layout! Learn more

10-Day Weather Forecast

Advertisements
Track Severe Weather on mobile